Terminal Aerodrome Forecast
Issued by NWS

Home | Current Version | Previous Version | Text Only | Print | Product List | Glossary On
Versions: 1 2 3 4 5 6 7 8 9 10 11 12 13 14 15 16 17 18 19
000
FTUS43 KMPX 051132
TAFRWF
TAF
KRWF 051132Z 0512/0612 14010KT P6SM SCT080 SCT250
     FM051500 17012G20KT P6SM SCT150 BKN250
     FM051900 18018G25KT P6SM SCT050 BKN250 PROB30 0521/0602 4SM
      TSRA OVC050CB
     FM060600 14007KT P6SM VCSH BKN060=

USA.gov is the U.S. government's official web portal to all federal, state and local government web resources and services.